Breesport, New York
Current Conditions -  °F | °C
As of 6:53 AM on Tuesday 21 Oct 2014 (Local Time) from KELM Reporting Station
Light Rain Light Rain  
Wind Chill: 47°   Ceiling: 4300
Heat Index: 47°   Visibility: 7mi
Dew Point: 46°   Wind: 0mph
Humidity: 97%   Direction: NA
Pressure: 29.82"   Gusts: NA
Location:  42.17°N, 76.73°W
Report Text: KELM 211053Z 00000KT 7SM -RA FEW034 OVC043 08/08 A2982 RMK AO2 RAB37 SLP099 P0000 T00830078
Loading
Personal Weather Stations






























Interactive Weather Map New forecast layout! Learn more

10-Day Weather Forecast

Advertisements
Track Severe Weather on mobile